Elton, Wisconsin
Current Conditions -  °F | °C
As of 7:15 AM on Tuesday 21 Oct 2014 (Local Time) from KAIG Reporting Station
Overcast Overcast  
Wind Chill: 31°   Ceiling: 1500
Heat Index: 38°   Visibility: 10mi
Dew Point: 34°   Wind: 10mph
Humidity: 85%   Direction: 10°N
Pressure: 30.18"   Gusts: NA
Location:  45.17°N, 88.89°W
Report Text: KAIG 211215Z AUTO 01009KT 10SM OVC015 04/01 A3018 RMK AO2 T00350012
Loading
Personal Weather Stations






























Interactive Weather Map New forecast layout! Learn more

10-Day Weather Forecast

Advertisements
Track Severe Weather on mobile